createdAt,value
2018-02-07T00:01:55.388Z,28.05
2018-02-07T00:04:22.974Z,30.55
2018-02-07T00:06:51.319Z,30.42
2018-02-07T00:09:18.858Z,31.50
2018-02-07T00:11:46.423Z,31.52
2018-02-07T00:14:14.105Z,30.67
2018-02-07T00:16:41.670Z,29.70
2018-02-07T00:19:09.985Z,35.33
2018-02-07T00:21:38.330Z,31.30
2018-02-07T00:24:06.033Z,30.80
2018-02-07T00:26:34.420Z,31.98
2018-02-07T00:29:02.049Z,32.17
2018-02-07T00:31:30.372Z,30.73
2018-02-07T00:33:58.050Z,31.48
2018-02-07T00:36:25.606Z,33.25
2018-02-07T00:38:53.155Z,30.05
2018-02-07T00:41:20.756Z,33.28
2018-02-07T00:43:48.355Z,31.25
2018-02-07T00:46:15.907Z,32.58
2018-02-07T00:48:43.548Z,31.92
2018-02-07T00:51:11.095Z,32.65
2018-02-07T00:53:38.640Z,32.72
2018-02-07T00:56:06.331Z,31.25
2018-02-07T00:58:33.933Z,35.30
2018-02-07T01:01:02.291Z,33.28
2018-02-07T01:03:29.885Z,28.42
2018-02-07T01:05:57.446Z,33.22
2018-02-07T01:08:24.996Z,33.75
2018-02-07T01:10:52.618Z,34.15
2018-02-07T01:13:20.170Z,32.03
2018-02-07T01:15:48.514Z,32.80
2018-02-07T01:18:16.871Z,31.35
2018-02-07T01:20:44.429Z,31.73
2018-02-07T01:23:11.990Z,33.15
2018-02-07T01:25:40.329Z,33.92
2018-02-07T01:28:08.752Z,36.00
2018-02-07T01:30:36.357Z,31.48
2018-02-07T01:33:03.918Z,32.00
2018-02-07T01:35:32.247Z,36.10
2018-02-07T01:38:00.607Z,36.13
2018-02-07T01:40:28.914Z,33.70
2018-02-07T01:42:56.463Z,31.52
2018-02-07T01:45:24.125Z,33.42
2018-02-07T01:47:51.657Z,29.90
2018-02-07T01:50:19.224Z,35.00
2018-02-07T01:52:47.598Z,32.47
2018-02-07T01:55:15.144Z,35.97
2018-02-07T01:57:42.697Z,37.67
2018-02-07T02:00:10.391Z,36.97
2018-02-07T02:02:37.970Z,36.95
2018-02-07T02:05:06.306Z,37.58
2018-02-07T02:07:34.695Z,37.80
2018-02-07T02:10:02.293Z,36.65
2018-02-07T02:12:29.854Z,34.00
2018-02-07T02:14:57.428Z,36.50
2018-02-07T02:17:24.966Z,38.15
2018-02-07T02:19:52.556Z,36.17
2018-02-07T02:22:20.099Z,37.22
2018-02-07T02:24:47.630Z,37.30
2018-02-07T02:27:15.233Z,38.42
2018-02-07T02:29:42.780Z,37.70
2018-02-07T02:32:10.371Z,38.00
2018-02-07T02:34:37.918Z,32.42
2018-02-07T02:37:05.466Z,34.75
2018-02-07T02:39:33.140Z,34.55
2018-02-07T02:42:00.707Z,35.75
2018-02-07T02:44:28.301Z,33.63
2018-02-07T02:46:55.993Z,36.17
2018-02-07T02:49:23.567Z,35.95
2018-02-07T02:51:51.133Z,39.17
2018-02-07T02:54:18.759Z,35.55
2018-02-07T02:56:46.313Z,35.05
2018-02-07T02:59:13.903Z,40.88
2018-02-07T03:01:41.571Z,37.85
2018-02-07T03:04:09.883Z,38.05
2018-02-07T03:06:37.569Z,38.63
2018-02-07T03:09:05.132Z,38.00
2018-02-07T03:11:32.692Z,36.88
2018-02-07T03:14:00.276Z,36.58
2018-02-07T03:16:27.879Z,37.17
2018-02-07T03:18:55.432Z,38.40
2018-02-07T03:21:23.007Z,36.08
2018-02-07T03:23:50.561Z,41.10
2018-02-07T03:26:18.875Z,36.03
2018-02-07T03:28:46.465Z,43.70
2018-02-07T03:31:14.033Z,36.50
2018-02-07T03:33:41.598Z,34.08
2018-02-07T03:36:09.179Z,41.40
2018-02-07T03:38:37.520Z,41.78
2018-02-07T03:41:05.874Z,41.90
2018-02-07T03:43:33.426Z,40.60
2018-02-07T03:46:00.975Z,42.33
2018-02-07T03:48:28.581Z,43.25
2018-02-07T03:50:56.144Z,45.03
2018-02-07T03:53:23.681Z,41.67
2018-02-07T03:55:51.277Z,41.78
2018-02-07T03:58:18.827Z,43.60
2018-02-07T04:00:46.397Z,43.30
2018-02-07T04:03:14.708Z,42.42
2018-02-07T04:05:42.311Z,43.40
2018-02-07T04:08:09.932Z,44.00
2018-02-07T04:10:37.482Z,42.58
2018-02-07T04:13:05.038Z,43.42
2018-02-07T04:15:32.647Z,44.55
2018-02-07T04:18:00.228Z,43.42
2018-02-07T04:20:27.770Z,47.00
2018-02-07T04:22:56.114Z,41.28
2018-02-07T04:25:24.480Z,45.40
2018-02-07T04:27:52.087Z,51.28
2018-02-07T04:30:19.639Z,41.28
2018-02-07T04:32:48.037Z,48.58
2018-02-07T04:35:15.659Z,53.80
2018-02-07T04:37:43.285Z,46.30
2018-02-07T04:40:10.833Z,48.78
2018-02-07T04:42:38.416Z,47.15
2018-02-07T04:45:05.972Z,52.92
2018-02-07T04:47:33.536Z,50.05
2018-02-07T04:50:02.034Z,46.17
2018-02-07T04:52:29.596Z,46.70
2018-02-07T04:54:57.142Z,49.28
2018-02-07T04:57:25.484Z,49.13
2018-02-07T04:59:53.950Z,47.55
2018-02-07T05:02:21.783Z,48.05
2018-02-07T05:04:49.384Z,50.88
2018-02-07T05:07:16.946Z,52.13
2018-02-07T05:09:44.514Z,50.45
2018-02-07T05:12:12.143Z,49.10
2018-02-07T05:14:39.708Z,51.53
2018-02-07T05:17:07.265Z,53.10
2018-02-07T05:19:35.767Z,48.45
2018-02-07T05:22:03.355Z,53.60
2018-02-07T05:24:30.891Z,54.35
2018-02-07T05:26:58.461Z,54.92
2018-02-07T05:29:26.059Z,52.75
2018-02-07T05:31:54.369Z,54.88
2018-02-07T05:34:21.958Z,54.25
2018-02-07T05:36:49.527Z,47.88
2018-02-07T05:39:17.094Z,50.65
2018-02-07T05:41:44.686Z,50.20
2018-02-07T05:44:13.013Z,51.92
2018-02-07T05:46:41.394Z,52.25
2018-02-07T05:49:08.976Z,53.15
2018-02-07T05:51:36.534Z,50.28
2018-02-07T05:54:04.104Z,54.55
2018-02-07T05:56:32.485Z,53.05
2018-02-07T05:59:00.062Z,51.83
2018-02-07T06:01:28.408Z,52.33
2018-02-07T06:03:56.782Z,51.53
2018-02-07T06:06:24.323Z,52.88
2018-02-07T06:08:51.882Z,51.35
2018-02-07T06:11:20.318Z,48.83
2018-02-07T06:13:48.637Z,51.15
2018-02-07T06:16:16.203Z,51.15
2018-02-07T06:18:43.779Z,49.58
2018-02-07T06:21:11.354Z,47.60
2018-02-07T06:23:38.947Z,47.08
2018-02-07T06:26:06.545Z,47.75
2018-02-07T06:28:34.943Z,50.53
2018-02-07T06:31:02.520Z,49.38
2018-02-07T06:33:30.100Z,47.97
2018-02-07T06:35:57.721Z,47.15
2018-02-07T06:38:25.286Z,49.55
2018-02-07T06:40:52.877Z,51.80
2018-02-07T06:43:21.991Z,49.97
2018-02-07T06:45:50.491Z,48.92
2018-02-07T06:48:18.825Z,47.55
2018-02-07T06:50:47.177Z,46.90
2018-02-07T06:53:14.771Z,49.15
2018-02-07T06:55:43.098Z,49.20
2018-02-07T06:58:10.724Z,49.70
2018-02-07T07:00:39.062Z,54.10
2018-02-07T07:03:06.760Z,49.88
2018-02-07T07:05:34.308Z,47.90
2018-02-07T07:08:02.633Z,48.10
2018-02-07T07:10:30.243Z,47.70
2018-02-07T07:12:57.813Z,44.88
2018-02-07T07:15:25.452Z,45.95
2018-02-07T07:17:53.002Z,48.50
2018-02-07T07:20:20.739Z,50.30
2018-02-07T07:22:49.135Z,47.97
2018-02-07T07:25:16.704Z,48.33
2018-02-07T07:27:45.060Z,46.75
2018-02-07T07:30:13.824Z,45.25
2018-02-07T07:32:41.425Z,47.90
2018-02-07T07:35:09.082Z,47.38
2018-02-07T07:37:36.846Z,45.80
2018-02-07T07:40:04.432Z,47.58
2018-02-07T07:42:31.991Z,43.90
2018-02-07T07:44:59.568Z,44.33
2018-02-07T07:47:27.165Z,43.55
2018-02-07T08:04:21.642Z,45.90
2018-02-07T08:06:49.200Z,47.85
2018-02-07T08:09:16.762Z,49.33
2018-02-07T08:11:44.432Z,44.33
2018-02-07T08:14:12.073Z,51.05
2018-02-07T08:16:39.667Z,47.67
2018-02-07T08:19:07.984Z,50.88
2018-02-07T08:21:36.354Z,49.70
2018-02-07T08:24:04.004Z,47.50
2018-02-07T08:26:31.575Z,47.78
2018-02-07T08:28:59.902Z,47.08
2018-02-07T08:31:28.293Z,45.08
2018-02-07T08:33:55.891Z,46.63
2018-02-07T08:36:23.510Z,48.15
2018-02-07T08:38:51.059Z,49.13
2018-02-07T08:41:18.684Z,47.62
2018-02-07T08:43:46.260Z,47.55
2018-02-07T08:46:14.577Z,47.40
2018-02-07T08:48:43.005Z,49.58
2018-02-07T08:51:10.607Z,47.97
2018-02-07T08:53:38.207Z,49.78
2018-02-07T08:56:05.812Z,47.90
2018-02-07T08:58:33.520Z,47.17
2018-02-07T09:01:01.835Z,46.72
2018-02-07T09:03:29.476Z,47.92
2018-02-07T09:05:57.823Z,48.63
2018-02-07T09:08:26.160Z,49.90
2018-02-07T09:10:54.805Z,47.42
2018-02-07T09:13:22.406Z,47.50
2018-02-07T09:15:50.775Z,48.78
2018-02-07T09:18:18.414Z,50.17
2018-02-07T09:20:46.060Z,50.08
2018-02-07T09:23:13.729Z,50.58
2018-02-07T09:25:42.091Z,47.80
2018-02-07T09:28:09.891Z,47.42
2018-02-07T09:30:38.257Z,46.80
2018-02-07T09:33:06.056Z,45.97
2018-02-07T09:35:34.390Z,48.95
2018-02-07T09:38:02.764Z,44.85
2018-02-07T09:40:30.798Z,49.67
2018-02-07T09:42:58.385Z,48.22
2018-02-07T09:45:26.131Z,46.67
2018-02-07T09:47:53.692Z,46.70
2018-02-07T09:50:22.330Z,46.80
2018-02-07T09:52:49.909Z,45.40
2018-02-07T09:55:17.513Z,48.53
2018-02-07T09:57:45.079Z,49.28
2018-02-07T10:00:12.638Z,47.53
2018-02-07T10:02:40.233Z,46.78
2018-02-07T10:05:09.562Z,44.85
2018-02-07T10:07:38.093Z,48.13
2018-02-07T10:10:05.735Z,45.97
2018-02-07T10:12:33.403Z,45.12
2018-02-07T10:15:00.961Z,46.20
2018-02-07T10:17:28.827Z,44.55
2018-02-07T10:19:56.427Z,46.25
2018-02-07T10:22:24.175Z,45.47
2018-02-07T10:24:52.350Z,47.42
2018-02-07T10:27:19.966Z,43.53
2018-02-07T10:29:48.352Z,43.05
2018-02-07T10:32:16.283Z,44.08
2018-02-07T10:34:43.881Z,44.10
2018-02-07T10:37:11.418Z,44.45
2018-02-07T10:39:39.083Z,43.58
2018-02-07T10:42:06.680Z,43.08
2018-02-07T10:44:34.232Z,44.90
2018-02-07T10:47:02.582Z,44.47
2018-02-07T10:49:30.190Z,44.05
2018-02-07T10:51:57.744Z,42.35
2018-02-07T10:54:26.085Z,43.78
2018-02-07T10:56:54.505Z,43.05
2018-02-07T10:59:22.065Z,44.33
2018-02-07T11:01:49.684Z,43.03
2018-02-07T11:04:17.254Z,46.15
2018-02-07T11:06:45.020Z,46.15
2018-02-07T11:09:12.635Z,44.58
2018-02-07T11:11:40.241Z,44.63
2018-02-07T11:14:07.883Z,45.22
2018-02-07T11:16:35.512Z,45.22
2018-02-07T11:19:03.116Z,44.58
2018-02-07T11:21:30.726Z,43.17
2018-02-07T11:23:58.348Z,43.63
2018-02-07T11:26:25.975Z,44.83
2018-02-07T11:28:53.569Z,44.47
2018-02-07T11:31:21.132Z,45.47
2018-02-07T11:33:48.826Z,43.25
2018-02-07T11:36:16.372Z,47.72
2018-02-07T11:38:43.981Z,45.95
2018-02-07T11:41:11.546Z,44.13
2018-02-07T11:43:39.295Z,45.38
2018-02-07T11:46:06.874Z,45.25
2018-02-07T11:48:35.075Z,45.35
2018-02-07T11:51:03.482Z,44.00
2018-02-07T11:53:31.158Z,44.28
2018-02-07T11:55:58.762Z,44.50
2018-02-07T11:58:26.321Z,45.53
2018-02-07T12:00:54.735Z,44.65
2018-02-07T12:03:22.965Z,43.47
2018-02-07T12:05:50.528Z,44.72
2018-02-07T12:08:18.103Z,46.95
2018-02-07T12:10:45.703Z,48.55
2018-02-07T12:13:13.265Z,45.47
2018-02-07T12:15:46.701Z,45.92
2018-02-07T12:18:14.657Z,48.58
2018-02-07T12:20:42.226Z,47.65
2018-02-07T12:23:10.682Z,45.78
2018-02-07T12:25:38.236Z,47.05
2018-02-07T12:28:05.848Z,47.97
2018-02-07T12:30:34.323Z,47.05
2018-02-07T12:33:01.917Z,46.95
2018-02-07T12:35:29.481Z,45.97
2018-02-07T12:37:57.091Z,45.03
2018-02-07T12:40:24.649Z,52.35
2018-02-07T12:42:52.260Z,45.28
2018-02-07T12:45:22.139Z,46.40
2018-02-07T12:47:50.500Z,46.67
2018-02-07T12:50:18.115Z,47.17
2018-02-07T12:52:45.719Z,43.92
2018-02-07T12:55:13.372Z,46.28
2018-02-07T12:57:41.027Z,48.03
2018-02-07T13:00:08.882Z,47.50
2018-02-07T13:02:36.561Z,45.58
2018-02-07T13:05:04.348Z,44.63
2018-02-07T13:07:32.407Z,45.70
2018-02-07T13:10:00.759Z,42.55
2018-02-07T13:12:28.390Z,45.47
2018-02-07T13:14:55.939Z,45.80
2018-02-07T13:17:24.413Z,45.00
2018-02-07T13:19:51.968Z,46.70
2018-02-07T13:22:19.519Z,44.85
2018-02-07T13:24:47.121Z,45.65
2018-02-07T13:27:14.886Z,43.78
2018-02-07T13:29:42.435Z,44.95
2018-02-07T13:32:10.888Z,44.05
2018-02-07T13:34:38.492Z,43.92
2018-02-07T13:37:06.936Z,48.65
2018-02-07T13:39:34.635Z,42.20
2018-02-07T13:42:02.276Z,41.00
2018-02-07T13:44:29.882Z,43.40
2018-02-07T13:46:58.280Z,46.45
2018-02-07T13:49:25.855Z,42.92
2018-02-07T13:51:53.430Z,42.53
2018-02-07T13:54:21.961Z,42.00
2018-02-07T13:56:50.349Z,38.90
2018-02-07T13:59:17.921Z,43.65
2018-02-07T14:01:45.499Z,41.13
2018-02-07T14:04:13.047Z,44.40
2018-02-07T14:06:40.760Z,41.60
2018-02-07T14:09:08.330Z,40.20
2018-02-07T14:11:36.660Z,39.38
2018-02-07T14:14:04.450Z,40.10
2018-02-07T14:16:32.357Z,40.47
2018-02-07T14:19:00.675Z,40.70
2018-02-07T14:21:28.442Z,40.53
2018-02-07T14:23:56.028Z,39.58
2018-02-07T14:26:24.349Z,40.58
2018-02-07T14:28:51.994Z,39.22
2018-02-07T14:31:20.484Z,39.03
2018-02-07T14:33:48.084Z,41.83
2018-02-07T14:36:15.646Z,39.78
2018-02-07T14:38:43.365Z,40.28
2018-02-07T14:41:10.997Z,41.28
2018-02-07T14:43:38.597Z,42.40
2018-02-07T14:46:06.151Z,43.92
2018-02-07T14:48:34.495Z,41.47
2018-02-07T14:51:02.824Z,41.95
2018-02-07T14:53:30.491Z,42.30
2018-02-07T14:55:58.090Z,41.45
2018-02-07T14:58:25.670Z,38.97
2018-02-07T15:00:53.248Z,40.75
2018-02-07T15:03:20.956Z,39.17
2018-02-07T15:05:48.508Z,40.63
2018-02-07T15:08:16.726Z,39.70
2018-02-07T15:10:44.361Z,44.33
2018-02-07T15:13:11.938Z,40.83
2018-02-07T15:15:39.483Z,42.90
2018-02-07T15:18:07.984Z,42.15
2018-02-07T15:20:35.614Z,43.50
2018-02-07T15:23:03.967Z,42.88
2018-02-07T15:25:32.327Z,41.28
2018-02-07T15:28:00.008Z,41.20
2018-02-07T15:30:29.424Z,40.55
2018-02-07T15:32:57.064Z,41.97
2018-02-07T15:35:25.498Z,45.55
2018-02-07T15:37:54.006Z,46.65
2018-02-07T15:40:22.294Z,43.58
2018-02-07T15:42:50.394Z,44.80
2018-02-07T15:45:17.985Z,45.12
2018-02-07T15:47:46.156Z,43.60
2018-02-07T15:50:16.343Z,43.60
2018-02-07T15:52:44.030Z,44.60
2018-02-07T15:55:11.784Z,44.08
2018-02-07T15:57:40.023Z,46.30
2018-02-07T16:00:07.687Z,47.42
2018-02-07T16:02:35.803Z,43.10
2018-02-07T16:05:05.156Z,46.25
2018-02-07T16:07:35.675Z,44.20
2018-02-07T16:10:04.895Z,45.45
2018-02-07T16:12:32.885Z,47.62
2018-02-07T16:15:02.216Z,46.58
2018-02-07T16:17:30.958Z,46.17
2018-02-07T16:19:59.689Z,47.58
2018-02-07T16:22:31.027Z,49.60
2018-02-07T16:24:59.642Z,46.33
2018-02-07T16:27:27.683Z,47.38
2018-02-07T16:29:55.396Z,46.95
2018-02-07T16:32:23.228Z,44.58
2018-02-07T16:34:50.943Z,44.65
2018-02-07T16:37:19.878Z,45.10
2018-02-07T16:39:47.605Z,45.35
2018-02-07T16:42:15.343Z,45.97
2018-02-07T16:44:42.896Z,46.70
2018-02-07T16:47:10.709Z,48.20
2018-02-07T16:49:38.295Z,45.35
2018-02-07T16:52:07.584Z,44.88
2018-02-07T16:54:35.331Z,45.08
2018-02-07T16:57:02.918Z,45.33
2018-02-07T16:59:31.304Z,42.35
2018-02-07T17:02:01.544Z,43.85
2018-02-07T17:04:29.989Z,46.05
2018-02-07T17:06:57.569Z,46.17
2018-02-07T17:09:25.147Z,44.50
2018-02-07T17:11:52.741Z,45.78
2018-02-07T17:14:21.072Z,46.45
2018-02-07T17:16:49.672Z,48.40
2018-02-07T17:19:18.212Z,45.70
2018-02-07T17:21:45.912Z,48.47
2018-02-07T17:24:13.479Z,48.47
2018-02-07T17:26:41.944Z,50.08
2018-02-07T17:29:10.250Z,45.67
2018-02-07T17:31:38.859Z,47.70
2018-02-07T17:34:06.772Z,46.13
2018-02-07T17:36:34.403Z,49.88
2018-02-07T17:39:02.003Z,48.87
2018-02-07T17:41:30.811Z,47.70
2018-02-07T17:43:58.390Z,47.13
2018-02-07T17:46:25.957Z,48.30
2018-02-07T17:48:53.770Z,42.97
2018-02-07T17:51:21.379Z,45.25
2018-02-07T17:53:49.159Z,46.50
2018-02-07T17:56:16.776Z,48.63
2018-02-07T17:58:45.078Z,49.00
2018-02-07T18:01:12.730Z,47.67
2018-02-07T18:03:41.099Z,48.97
2018-02-07T18:06:08.671Z,47.53
2018-02-07T18:08:36.292Z,47.25
2018-02-07T18:11:04.009Z,49.33
2018-02-07T18:13:31.607Z,48.67
2018-02-07T18:15:59.203Z,47.17
2018-02-07T18:18:26.804Z,49.80
2018-02-07T18:20:54.382Z,49.72
2018-02-07T18:23:22.805Z,49.28
2018-02-07T18:25:50.416Z,49.65
2018-02-07T18:28:17.968Z,49.75
2018-02-07T18:30:46.366Z,49.83
2018-02-07T18:33:14.718Z,51.33
2018-02-07T18:35:42.327Z,53.47
2018-02-07T18:38:09.899Z,52.62
2018-02-07T18:40:37.572Z,50.63
2018-02-07T18:43:05.127Z,51.20
2018-02-07T18:45:33.445Z,49.78
2018-02-07T18:48:01.090Z,48.15
2018-02-07T18:50:29.489Z,49.13
2018-02-07T18:52:57.955Z,50.97
2018-02-07T18:55:25.515Z,48.75
2018-02-07T18:57:53.076Z,52.03
2018-02-07T19:00:21.651Z,52.15
2018-02-07T19:02:49.234Z,52.53
2018-02-07T19:05:16.884Z,50.55
2018-02-07T19:07:44.525Z,56.15
2018-02-07T19:10:12.075Z,52.97
2018-02-07T19:12:39.647Z,52.05
2018-02-07T19:15:07.229Z,54.58
2018-02-07T19:17:34.793Z,54.78
2018-02-07T19:20:02.755Z,54.17
2018-02-07T19:22:30.307Z,54.92
2018-02-07T19:24:59.268Z,53.92
2018-02-07T19:27:26.933Z,53.47
2018-02-07T19:29:56.319Z,52.05
2018-02-07T19:32:25.278Z,53.03
2018-02-07T19:34:52.952Z,51.00
2018-02-07T19:37:21.492Z,51.75
2018-02-07T19:39:49.326Z,51.95
2018-02-07T19:42:17.866Z,54.38
2018-02-07T19:44:45.477Z,50.55
2018-02-07T19:47:13.048Z,54.53
2018-02-07T19:49:40.655Z,52.88
2018-02-07T19:52:09.112Z,54.40
2018-02-07T19:54:36.672Z,51.60
2018-02-07T19:57:04.259Z,50.12
2018-02-07T19:59:31.849Z,53.25
2018-02-07T20:02:00.232Z,51.45
2018-02-07T20:04:27.856Z,51.72
2018-02-07T20:06:55.515Z,51.15
2018-02-07T20:09:24.177Z,53.55
2018-02-07T20:11:52.762Z,51.72
2018-02-07T20:14:20.405Z,51.13
2018-02-07T20:16:48.561Z,55.12
2018-02-07T20:19:17.005Z,52.95
2018-02-07T20:21:45.424Z,49.67
2018-02-07T20:24:13.009Z,49.88
2018-02-07T20:26:40.560Z,52.97
2018-02-07T20:29:08.167Z,51.28
2018-02-07T20:31:36.566Z,51.33
2018-02-07T20:34:06.080Z,70.57
2018-02-07T20:36:33.876Z,51.03
2018-02-07T20:39:01.529Z,54.35
2018-02-07T20:41:30.138Z,50.53
2018-02-07T20:43:57.912Z,50.47
2018-02-07T20:46:26.341Z,51.00
2018-02-07T20:48:54.909Z,51.42
2018-02-07T20:51:22.747Z,55.30
2018-02-07T20:53:51.133Z,52.78
2018-02-07T20:56:19.858Z,53.78
2018-02-07T20:58:48.221Z,51.67
2018-02-07T21:01:16.670Z,52.00
2018-02-07T21:03:44.292Z,50.17
2018-02-07T21:06:12.643Z,51.35
2018-02-07T21:08:41.211Z,50.90
2018-02-07T21:11:09.572Z,49.53
2018-02-07T21:13:37.177Z,50.88
2018-02-07T21:16:05.564Z,51.25
2018-02-07T21:18:33.927Z,50.80
2018-02-07T21:21:01.537Z,50.17
2018-02-07T21:23:29.643Z,48.87
2018-02-07T21:25:57.285Z,48.72
2018-02-07T21:28:25.155Z,49.83
2018-02-07T21:30:52.764Z,52.60
2018-02-07T21:33:20.474Z,49.40
2018-02-07T21:35:48.748Z,46.58
2018-02-07T21:38:17.217Z,49.65
2018-02-07T21:40:44.858Z,48.55
2018-02-07T21:43:12.495Z,51.20
2018-02-07T21:45:40.929Z,47.20
2018-02-07T21:48:09.391Z,49.70
2018-02-07T21:50:37.787Z,51.70
2018-02-07T21:53:06.538Z,48.15
2018-02-07T21:55:34.151Z,46.50
2018-02-07T21:58:06.268Z,47.38
2018-02-07T22:00:33.857Z,47.83
2018-02-07T22:03:02.609Z,48.33
2018-02-07T22:05:30.955Z,48.72
2018-02-07T22:07:58.544Z,49.95
2018-02-07T22:10:27.157Z,48.38
2018-02-07T22:12:54.780Z,48.90
2018-02-07T22:15:22.363Z,48.85
2018-02-07T22:17:49.973Z,45.83
2018-02-07T22:20:17.595Z,48.85
2018-02-07T22:22:45.189Z,46.90
2018-02-07T22:25:12.813Z,48.95
2018-02-07T22:27:41.238Z,45.90
2018-02-07T22:30:08.856Z,45.78
2018-02-07T22:32:36.504Z,44.25
2018-02-07T22:35:04.106Z,45.90
2018-02-07T22:37:32.508Z,47.92
2018-02-07T22:40:00.090Z,45.95
2018-02-07T22:42:27.688Z,44.42
2018-02-07T22:44:56.126Z,44.92
2018-02-07T22:47:23.700Z,45.47
2018-02-07T22:49:51.298Z,43.67
2018-02-07T22:52:18.931Z,44.42
2018-02-07T22:54:46.599Z,42.83
2018-02-07T22:57:14.815Z,41.88
2018-02-07T22:59:42.442Z,45.47
2018-02-07T23:02:10.044Z,46.25
2018-02-07T23:04:37.617Z,42.20
2018-02-07T23:07:05.251Z,40.90
2018-02-07T23:09:32.850Z,39.20
2018-02-07T23:12:01.221Z,41.97
2018-02-07T23:14:30.447Z,41.42
2018-02-07T23:16:58.012Z,39.70
2018-02-07T23:19:25.670Z,41.70
2018-02-07T23:21:54.015Z,38.97
2018-02-07T23:24:21.656Z,40.50
2018-02-07T23:26:50.182Z,42.05
2018-02-07T23:29:17.848Z,40.63
2018-02-07T23:31:46.318Z,36.50
2018-02-07T23:34:14.082Z,38.72
2018-02-07T23:36:41.683Z,37.97
2018-02-07T23:39:09.276Z,40.38
2018-02-07T23:41:36.865Z,38.47
2018-02-07T23:44:04.519Z,43.40
2018-02-07T23:46:32.123Z,41.40
2018-02-07T23:48:59.713Z,40.63
2018-02-07T23:51:27.331Z,40.53
2018-02-07T23:53:54.925Z,39.63
2018-02-07T23:56:22.572Z,40.20
2018-02-07T23:58:50.166Z,40.85
